עמוד ראשי
METAR-TAF:

METAR-TAF

שדות תעופה :

Taos Regional Airport

Taos, ניו מקסיקו, ארצות הברית

קו רוחב: 36-27N, קו אורך: 105-40W, גובה: 2161מטר

תצפית מזג אוויר נוכחית

הדו"ח נערך לפני 1 שעות ו 10דקות, בשעה 02:56 UTC
רוח 5קשר מכיוון מזרח/דרום-מזרח
טמפרטורת 18 צלסיוס
לחות 64%
לחץ 1033 hPa
ראות: 16.1קילומטר
שמיים נקיים

METAR: KSKX 250256Z AUTO 12005KT 10SM CLR 18/11 A3051 RMK AO2 WSHFT 0151 RAE15 SLP267 P0001 60012 T01780106 51030

זמן: 22:06 (04:06 UTC)


TAF: חסר

תצפיות ותחזיות מזג אוויר לגבי יותר מ- 4,000 שדות תעופה ברחבי העולם. דוחות METAR ו- TAF.

התחנות הזמינות מסומנות בנקודות צהובות ואדומות על גבי המפה.

העבר את העכבר לנקודה הצבעונית על מנת לראות את שם התחנה.

לאחר מכן, לחץ כדי לראות את תוכן ואת תחזיות מזג האוויר.

כדי לשנות את המפה: לחץ על הכפתורים הירוקים עם הפלוס השחור כדי להתקרב; על הכפתור הירוק עם המקף כדי להתרחק; או בחיצים הירוקים למפות סמוכות.


METAR-TAF: